Latest Weather Observations for Horsham

IDV60801

Issued at 10:12 pm EDT Wednesday 14 November 2018 (issued every 10 minutes, with the page automatically refreshed every 10 minutes)

About weather observations | Map of weather stations | Latest weather observations for VIC | Other Formats
Station Details ID: 079100 Name: HORSHAM AERODROME Lat: -36.67 Lon: 142.17 Height: 133.8 m
Data from the previous 72 hours. | See also: Recent months at Horsham
Date/Time
EDT
Temp
°C
App
Temp
°C
Dew
Point
°C
Rel
Hum
%
Delta-T
°C
Wind Press
QNH
hPa
Press
MSL
hPa
Rain since
9am
mm
Dir  Spd
km/h
Gust
km/h
Spd
kts
Gust
kts
14/10:00pm 14.3 10.5 9.1 71 2.7 SW 19 24 10 13 1019.6 1019.4 0.0
14/09:30pm 15.1 10.5 9.5 69 2.9 SW 24 35 13 19 1019.2 1019.0 0.0
14/09:00pm 15.9 10.2 9.8 67 3.2 WSW 30 39 16 21 1018.6 1018.4 0.0
14/08:36pm 18.0 12.2 9.6 58 4.4 WSW 30 48 16 26 1018.0 1017.8 0.0
14/08:30pm 18.6 13.7 8.3 51 5.3 WSW 24 35 13 19 1017.8 1017.6 0.0
14/08:00pm 19.9 13.8 8.3 47 6.1 SW 30 39 16 21 1017.3 1017.1 0.0
14/07:30pm 20.4 14.9 7.7 44 6.6 SW 26 33 14 18 1016.7 1016.4 0.0
14/07:00pm 20.5 14.7 7.8 44 6.6 SW 28 37 15 20 1016.2 1015.9 0.0
14/06:30pm 21.4 16.2 7.3 40 7.3 SW 24 37 13 20 1016.0 1015.7 0.0
14/06:00pm 22.6 17.3 8.3 40 7.6 SW 26 35 14 19 1015.7 1015.4 0.0
14/05:30pm 21.3 16.4 8.6 44 6.7 SW 24 33 13 18 1015.7 1015.4 0.0
14/05:00pm 22.3 16.8 9.1 43 7.1 SW 28 41 15 22 1015.6 1015.3 0.0
14/04:30pm 21.3 15.8 9.2 46 6.5 SW 28 39 15 21 1015.8 1015.5 0.0
14/04:00pm 21.6 15.6 8.5 43 6.9 WSW 30 43 16 23 1015.7 1015.4 0.0
14/03:30pm 22.1 16.0 8.2 41 7.3 SW 30 43 16 23 1015.6 1015.3 0.0
14/03:00pm 23.0 16.3 7.5 37 8.1 WSW 32 46 17 25 1015.7 1015.4 0.0
14/02:45pm 22.8 17.0 7.8 38 7.9 WSW 28 46 15 25 1015.5 1015.2 0.0
14/02:30pm 21.8 15.9 7.6 40 7.4 WSW 28 44 15 24 1015.4 1015.1 0.0
14/02:00pm 21.7 16.8 8.6 43 7.0 SW 24 43 13 23 1015.4 1015.1 0.0
14/01:30pm 21.0 16.2 8.9 46 6.4 SW 24 35 13 19 1015.6 1015.3 0.0
14/01:00pm 21.7 18.0 9.6 46 6.5 SW 19 28 10 15 1015.6 1015.3 0.0
14/12:30pm 19.7 16.0 9.6 52 5.4 SW 19 33 10 18 1015.7 1015.4 0.0
14/12:00pm 18.6 15.6 9.4 55 4.9 WSW 15 22 8 12 1015.9 1015.6 0.0
14/11:30am 16.9 14.0 9.6 62 3.8 SSW 15 28 8 15 1016.2 1015.9 0.0
14/11:00am 16.0 12.5 10.1 68 3.1 SW 19 28 10 15 1016.2 1015.9 0.0
14/10:30am 15.5 11.5 10.5 72 2.7 SW 22 28 12 15 1016.3 1016.0 0.0
14/10:00am 15.6 11.9 10.2 70 2.8 SW 20 28 11 15 1016.1 1015.8 0.0
14/09:30am 14.9 11.1 9.9 72 2.6 SW 20 28 11 15 1015.9 1015.6 0.0
14/09:16am 15.2 11.5 10.2 72 2.6 SW 20 28 11 15 1015.8 1015.5 0.0
14/09:00am 14.3 10.6 10.3 77 2.1 SW 20 26 11 14 1015.7 1015.4 0.0
14/08:30am 13.3 9.3 10.5 83 1.5 SW 22 28 12 15 1015.6 1015.3 0.0
14/08:00am 12.8 8.5 10.7 87 1.1 SW 24 30 13 16 1015.3 1015.0 0.0
14/07:30am 12.7 8.4 10.6 87 1.1 SW 24 32 13 17 1015.1 1014.8 0.0
14/07:00am 13.0 9.2 11.1 88 1.0 SW 22 28 12 15 1014.7 1014.4 0.0
14/06:30am 13.5 9.4 11.4 87 1.1 SW 24 30 13 16 1014.3 1014.0 0.0
14/06:00am 14.0 10.9 11.7 86 1.2 SSW 19 24 10 13 1013.9 1013.6 0.0
14/05:30am 14.0 11.0 11.9 87 1.1 SW 19 24 10 13 1013.4 1013.2 0.0
14/05:00am 14.1 11.1 12.1 88 1.1 SW 19 26 10 14 1013.2 1013.0 0.0
14/04:30am 14.2 10.4 12.4 89 1.0 SW 24 30 13 16 1013.0 1012.8 0.0
14/04:00am 14.3 11.0 12.9 91 0.8 SW 22 28 12 15 1012.8 1012.6 0.0
14/03:30am 14.7 11.9 13.1 90 0.9 SW 20 24 11 13 1012.5 1012.3 0.0
14/03:00am 15.2 12.5 13.4 89 1.0 SW 20 24 11 13 1012.6 1012.4 0.0
14/02:30am 14.9 13.5 13.3 90 0.9 SW 13 19 7 10 1012.7 1012.5 0.0
14/02:18am 14.6 13.4 12.8 89 1.0 SW 11 13 6 7 1012.8 1012.6 0.0
14/02:00am 14.3 13.0 12.5 89 1.0 SSW 11 13 6 7 1012.7 1012.5 0.0
14/01:30am 15.2 13.4 13.2 88 1.1 SW 15 17 8 9 1013.1 1012.9 0.0
14/01:00am 15.7 14.0 13.5 87 1.2 SW 15 19 8 10 1013.1 1012.9 0.0
14/12:30am 16.6 14.1 14.1 85 1.4 SW 20 26 11 14 1013.1 1012.9 0.0
14/12:00am 17.1 14.4 14.6 85 1.4 SW 22 28 12 15 1012.9 1012.7 0.0
 
Date/Time
EDT
Temp
°C
App
Temp
°C
Dew
Point
°C
Rel
Hum
%
Delta-T
°C
Wind Press
QNH
hPa
Press
MSL
hPa
Rain since
9am
mm
Dir  Spd
km/h
Gust
km/h
Spd
kts
Gust
kts
13/11:30pm 17.5 15.3 15.0 85 1.5 SW 20 26 11 14 1012.8 1012.6 0.0
13/11:00pm 17.7 16.2 15.3 86 1.4 SW 17 22 9 12 1012.7 1012.5 0.0
13/10:30pm 18.2 17.5 15.5 84 1.6 WSW 13 19 7 10 1012.6 1012.4 0.0
13/10:00pm 18.7 17.0 15.8 83 1.7 WSW 19 24 10 13 1012.4 1012.2 0.0
13/09:30pm 20.0 18.0 16.4 80 2.2 WSW 22 30 12 16 1011.9 1011.7 0.0
13/09:00pm 21.1 20.5 16.7 76 2.7 W 15 24 8 13 1011.2 1011.0 0.0
13/08:30pm 21.1 21.0 16.1 73 3.0 SSW 11 17 6 9 1010.4 1010.1 0.0
13/08:00pm 21.6 21.3 14.5 64 4.2 S 9 13 5 7 1010.1 1009.8 0.0
13/07:30pm 22.8 22.3 13.8 57 5.3 WSW 9 11 5 6 1009.9 1009.6 0.0
13/07:00pm 22.7 21.6 13.2 55 5.5 W 11 15 6 8 1009.7 1009.4 0.0
13/06:30pm 21.3 20.3 14.7 66 3.9 S 13 13 7 7 1009.0 1008.7 0.0
13/06:00pm 22.9 19.6 12.8 53 5.8 W 22 30 12 16 1009.7 1009.4 0.0
13/05:30pm 24.3 18.4 11.3 44 7.3 WNW 33 46 18 25 1009.5 1009.2 0.0
13/05:00pm 26.6 20.2 7.1 29 10.4 WNW 30 39 16 21 1009.0 1008.7 0.0
13/04:30pm 28.4 22.4 7.1 26 11.4 W 28 39 15 21 1008.5 1008.2 0.0
13/04:00pm 29.0 23.6 6.4 24 12.1 WNW 24 33 13 18 1008.3 1008.0 0.0
13/03:30pm 29.5 23.3 6.2 23 12.4 WNW 28 35 15 19 1008.2 1007.9 0.0
13/03:00pm 29.9 23.7 4.5 20 13.2 WNW 26 33 14 18 1008.0 1007.7 0.0
13/02:30pm 30.6 23.4 2.8 17 14.1 WNW 30 41 16 22 1007.9 1007.6 0.0
13/02:00pm 29.9 23.9 7.2 24 12.3 WSW 28 37 15 20 1008.0 1007.7 0.0
13/01:30pm 32.6 24.9 5.2 18 14.6 W 35 46 19 25 1007.7 1007.4 0.0
13/01:01pm 33.2 25.2 -2.5 10 16.8 WNW 30 48 16 26 1007.4 1007.1 0.0
13/01:00pm 32.9 24.9 -2.7 10 16.7 WNW 30 41 16 22 1007.4 1007.1 0.0
13/12:30pm 34.4 27.3 -1.6 10 17.4 WNW 26 39 14 21 1007.8 1007.5 0.0
13/12:00pm 32.1 23.8 -2.0 11 16.1 WNW 32 41 17 22 1008.2 1007.9 0.0
13/11:30am 31.7 24.1 -2.3 11 15.9 NNW 28 39 15 21 1008.2 1007.9 0.0
13/11:00am 31.9 26.0 -2.2 11 16.0 N 19 30 10 16 1008.3 1008.0 0.0
13/10:30am 31.0 26.1 -0.6 13 15.1 NNE 15 20 8 11 1008.5 1008.2 0.0
13/10:00am 28.4 24.1 1.0 17 13.3 NE 13 20 7 11 1008.9 1008.6 0.0
13/09:30am 25.5 21.0 2.2 22 11.3 ENE 15 20 8 11 1009.1 1008.8 0.0
13/09:00am 23.6 19.1 2.4 25 10.2 ENE 15 19 8 10 1009.3 1009.0 0.0
13/08:30am 21.7 17.6 2.4 28 9.1 E 13 17 7 9 1009.1 1008.8 0.0
13/08:00am 20.6 16.1 2.0 29 8.7 E 15 20 8 11 1009.0 1008.7 0.0
13/07:30am 19.5 15.0 2.4 32 7.9 E 15 17 8 9 1009.1 1008.8 0.0
13/07:00am 17.3 13.3 4.9 44 6.0 SE 15 17 8 9 1009.1 1008.8 0.0
13/06:30am 17.4 13.9 7.2 51 5.1 E 15 19 8 10 1009.3 1009.0 0.0
13/06:00am 16.2 14.2 8.7 61 3.9 ESE 9 13 5 7 1009.6 1009.3 0.0
13/05:30am 17.5 15.8 8.4 55 4.7 SW 7 13 4 7 1009.9 1009.6 0.0
13/05:00am 17.7 15.6 8.3 54 4.9 W 9 22 5 12 1010.0 1009.7 0.0
13/04:30am 17.7 15.4 7.4 51 5.2 SSW 9 15 5 8 1009.2 1008.9 0.0
13/04:00am 18.6 16.1 6.4 45 6.1 SSW 9 15 5 8 1009.5 1009.2 0.0
13/03:30am 18.7 15.0 4.5 39 6.8 ESE 13 17 7 9 1009.2 1008.9 0.0
13/03:00am 18.5 14.5 6.7 46 5.9 SE 17 20 9 11 1009.6 1009.3 0.0
13/02:30am 19.8 16.5 6.2 41 6.8 WSW 13 17 7 9 1011.0 1010.8 0.0
13/02:00am 22.1 17.3 0.0 23 10.0 W 15 22 8 12 1010.9 1010.7 0.0
13/01:30am 20.7 16.2 -0.6 24 9.4 WNW 13 17 7 9 1010.8 1010.5 0.0
13/01:00am 19.6 15.8 -0.4 26 8.8 N 9 15 5 8 1010.7 1010.4 0.0
13/12:30am 20.2 14.8 -1.0 24 9.3 NNE 17 19 9 10 1010.8 1010.5 0.0
13/12:00am 20.0 15.0 -1.2 24 9.2 NNE 15 19 8 10 1011.1 1010.9 0.0
 
Date/Time
EDT
Temp
°C
App
Temp
°C
Dew
Point
°C
Rel
Hum
%
Delta-T
°C
Wind Press
QNH
hPa
Press
MSL
hPa
Rain since
9am
mm
Dir  Spd
km/h
Gust
km/h
Spd
kts
Gust
kts
12/11:30pm 20.4 15.1 -0.8 24 9.3 NNE 17 19 9 10 1011.2 1011.0 0.0
12/11:00pm 18.8 13.5 -0.6 27 8.4 NNE 17 17 9 9 1011.6 1011.4 0.0
12/10:30pm 20.6 15.7 -0.7 24 9.4 NNE 15 17 8 9 1012.0 1011.8 0.0
12/10:00pm 20.9 16.1 0.2 25 9.3 NNE 15 15 8 8 1011.9 1011.7 0.0
12/09:30pm 22.2 17.3 -0.5 22 10.2 NNE 15 17 8 9 1011.9 1011.7 0.0
12/09:00pm 23.5 18.2 -0.7 20 10.9 NNE 17 17 9 9 1011.9 1011.7 0.0
12/08:30pm 26.3 20.4 -2.4 15 12.8 NNE 19 24 10 13 1011.7 1011.5 0.0
12/08:00pm 27.4 21.6 -1.5 15 13.3 NNE 19 28 10 15 1011.6 1011.4 0.0
12/07:30pm 29.1 24.0 -2.1 13 14.4 N 15 20 8 11 1011.4 1011.2 0.0
12/07:00pm 30.2 23.6 -3.5 11 15.3 NNW 22 26 12 14 1011.4 1011.2 0.0
12/06:30pm 30.6 23.1 -4.4 10 15.6 NNW 26 32 14 17 1011.4 1011.2 0.0
12/06:00pm 31.5 23.3 -3.8 10 16.1 NNW 30 39 16 21 1011.5 1011.3 0.0
12/05:30pm 32.0 23.5 -3.4 10 16.3 NNW 32 43 17 23 1011.5 1011.3 0.0
12/05:01pm 33.3 25.5 -3.8 9 17.1 NNW 28 56 15 30 1011.3 1011.1 0.0
12/05:00pm 32.9 25.4 -4.1 9 16.9 NNW 26 43 14 23 1011.4 1011.2 0.0
12/04:30pm 32.3 26.1 -4.6 9 16.7 N 19 26 10 14 1011.6 1011.4 0.0
12/04:00pm 32.6 25.9 -4.3 9 16.8 N 22 32 12 17 1011.9 1011.7 0.0
12/03:30pm 33.0 26.3 -4.0 9 17.0 NNW 22 33 12 18 1012.4 1012.2 0.0
12/03:00pm 32.8 25.7 -4.2 9 16.9 N 24 35 13 19 1012.8 1012.6 0.0
12/02:30pm 32.4 26.2 -3.1 10 16.5 N 20 32 11 17 1013.3 1013.1 0.0
12/02:00pm 32.7 25.4 -2.9 10 16.6 N 26 41 14 22 1013.8 1013.5 0.0
12/01:30pm 32.0 24.8 -2.1 11 16.0 N 26 39 14 21 1014.2 1013.9 0.0
12/01:00pm 29.8 22.1 -2.6 12 14.8 N 28 33 15 18 1014.8 1014.5 0.0
12/12:30pm 29.4 22.3 -0.9 14 14.3 N 26 33 14 18 1015.6 1015.3 0.0
12/12:00pm 29.6 21.3 -1.7 13 14.5 N 32 43 17 23 1015.8 1015.5 0.0
12/11:30am 29.7 22.1 0.3 15 14.2 NNE 30 39 16 21 1016.0 1015.7 0.0
12/11:00am 27.2 21.4 2.3 20 12.2 NNE 22 32 12 17 1016.5 1016.2 0.0
12/10:30am 25.1 18.6 2.5 23 11.0 NNE 26 35 14 19 1016.6 1016.3 0.0
12/10:00am 24.5 18.7 4.3 27 10.1 NE 24 32 13 17 1016.9 1016.6 0.0
12/09:30am 22.9 16.6 3.9 29 9.3 NNE 26 35 14 19 1017.3 1017.1 0.0
12/09:00am 20.1 14.3 6.1 40 7.0 NE 26 35 14 19 1017.4 1017.2 0.0
12/08:30am 18.2 12.6 7.0 48 5.6 NE 26 35 14 19 1017.2 1016.9 0.0
12/08:00am 17.0 11.9 7.6 54 4.8 ENE 24 32 13 17 1017.0 1016.7 0.0
12/07:30am 15.0 11.3 7.8 62 3.6 ENE 17 22 9 12 1017.0 1016.7 0.0
12/07:00am 13.8 10.0 7.6 66 3.1 ENE 17 20 9 11 1016.8 1016.5 0.0
12/06:30am 13.1 9.3 7.5 69 2.8 ENE 17 22 9 12 1016.5 1016.2 0.0
12/06:00am 13.2 9.4 7.6 69 2.8 ENE 17 20 9 11 1016.4 1016.1 0.0
12/05:30am 12.5 8.7 7.4 71 2.5 E 17 19 9 10 1016.4 1016.1 0.0
12/05:00am 13.0 9.1 7.2 68 2.8 E 17 22 9 12 1016.6 1016.3 0.0
12/04:30am 13.6 9.4 7.6 67 3.0 E 19 20 10 11 1016.5 1016.2 0.0
12/04:00am 14.5 10.4 8.0 65 3.3 E 19 24 10 13 1016.7 1016.4 0.0
12/03:30am 14.3 10.7 8.3 67 3.0 E 17 20 9 11 1016.9 1016.6 0.0
12/03:00am 14.2 10.5 7.9 66 3.1 E 17 19 9 10 1017.0 1016.7 0.0
12/02:30am 14.6 10.7 8.5 67 3.1 E 19 24 10 13 1017.1 1016.8 0.0
12/02:00am 13.5 9.9 8.4 71 2.6 E 17 19 9 10 1017.1 1016.8 0.0
12/01:30am 13.1 9.4 8.0 71 2.5 ESE 17 20 9 11 1017.5 1017.3 0.0
12/01:00am 13.4 9.7 7.8 69 2.8 E 17 19 9 10 1017.6 1017.4 0.0
12/12:30am 14.7 11.0 8.0 64 3.4 ESE 17 20 9 11 1017.5 1017.3 0.0
12/12:00am 15.1 11.0 7.9 62 3.6 E 19 20 10 11 1017.5 1017.3 0.0
 
Date/Time
EDT
Temp
°C
App
Temp
°C
Dew
Point
°C
Rel
Hum
%
Delta-T
°C
Wind Press
QNH
hPa
Press
MSL
hPa
Rain since
9am
mm
Dir  Spd
km/h
Gust
km/h
Spd
kts
Gust
kts
11/11:30pm 14.8 10.4 6.6 58 4.0 ESE 19 20 10 11 1017.6 1017.4 0.0
11/11:00pm 13.3 8.0 3.1 50 4.6 ESE 20 22 11 12 1017.6 1017.4 0.0
11/10:30pm 13.3 8.6 3.4 51 4.5 ESE 17 19 9 10 1017.5 1017.3 0.0

Other Formats:

Comma delimited format used in spreadsheet applications
http://www.bom.gov.au/fwo/IDV60801/IDV60801.95839.axf

JavaScript Object Notation format (JSON) in row-major order
http://www.bom.gov.au/fwo/IDV60801/IDV60801.95839.json